M I D A S
Marine Information and Data Acquisition System
Tripno 1244 of the Zeeleeuw from 2007-04-10 06:39:03 to 2007-04-10 13:06:46
Back to CruiseResearch ActivitiesStationsMapUnderway DataData graphs

EquipmentUnitsComment
TimeDGPSUTC
LatitudeDGPSDM.mWGS84
LongitudeDGPSDM.mWGS84
HeadingGyrodeg 
SOGDGPSknotsSpeed over ground
COGDGPSdegCourse over ground
DepthEcho soundermeters200 kHz
Missing or incorrect values are displayed as -999
Navigation data collected by the RV Zeeleeuw from 2007-04-10 06:40:54 to 2007-04-10 13:10:20
                                                                                    Next 1000 lines
Time Latitude Longitude Heading SOG COG Depth
2007-04-10 06:41:03 51°13.601 2°56.099 112.7 0.4 286 6.6
2007-04-10 06:41:09 51°13.602 2°56.097 112.4 0.6 288 6.6
2007-04-10 06:41:14 51°13.602 2°56.095 112 0.8 288 6.6
2007-04-10 06:41:19 51°13.602 2°56.093 111.9 1 288 6.8
2007-04-10 06:41:24 51°13.603 2°56.09 111.8 1.3 288 6.9
2007-04-10 06:41:29 51°13.604 2°56.087 111.9 1.7 290 7.2
2007-04-10 06:41:34 51°13.605 2°56.083 112.5 2 289 -999
2007-04-10 06:41:40 51°13.606 2°56.077 113 2.3 291 -999
2007-04-10 06:41:46 51°13.608 2°56.071 113.6 2.6 292 -999
2007-04-10 06:41:51 51°13.609 2°56.065 113.9 2.9 291 -999
2007-04-10 06:41:57 51°13.611 2°56.057 113.9 3.1 292 -999
2007-04-10 06:42:03 51°13.613 2°56.049 114 3.2 291 -999
2007-04-10 06:42:08 51°13.614 2°56.042 114.3 3.4 291 -999
2007-04-10 06:42:13 51°13.616 2°56.035 114.5 3.5 291 -999
2007-04-10 06:42:18 51°13.618 2°56.028 114.9 3.6 292 -999
2007-04-10 06:42:23 51°13.62 2°56.02 115.4 3.7 291 -999
2007-04-10 06:42:28 51°13.622 2°56.013 116.1 3.8 292 -999
2007-04-10 06:42:33 51°13.624 2°56.005 116.8 3.9 293 -999
2007-04-10 06:42:38 51°13.626 2°55.996 117.5 4.1 293 -999
2007-04-10 06:42:43 51°13.628 2°55.988 118.1 4.2 294 -999
2007-04-10 06:42:48 51°13.631 2°55.979 118.5 4.3 295 -999
2007-04-10 06:42:53 51°13.633 2°55.971 119.3 4.4 296 -999
2007-04-10 06:42:58 51°13.636 2°55.962 120.3 4.4 296 -999
2007-04-10 06:43:03 51°13.639 2°55.953 121.1 4.5 297 -999
2007-04-10 06:43:08 51°13.642 2°55.944 121.6 4.5 298 -999
2007-04-10 06:43:13 51°13.645 2°55.935 121.8 4.5 298 -999
2007-04-10 06:43:18 51°13.648 2°55.927 122 4.5 299 -999
2007-04-10 06:43:23 51°13.651 2°55.918 122 4.5 299 -999
2007-04-10 06:43:28 51°13.654 2°55.909 121.8 4.6 299 -999
2007-04-10 06:43:33 51°13.657 2°55.9 121.3 4.6 298 -999
2007-04-10 06:43:38 51°13.66 2°55.891 120.6 4.6 298 -999
2007-04-10 06:43:43 51°13.663 2°55.882 119.5 4.5 297 -999
2007-04-10 06:43:48 51°13.666 2°55.874 118.6 4.3 296 -999
2007-04-10 06:43:53 51°13.668 2°55.866 117.5 4.2 296 -999
2007-04-10 06:43:58 51°13.67 2°55.857 116.4 4 294 -999
2007-04-10 06:44:03 51°13.672 2°55.85 115 3.9 294 -999
2007-04-10 06:44:08 51°13.674 2°55.842 113.7 3.7 292 -999
2007-04-10 06:44:12 51°13.676 2°55.836 112.5 3.6 292 11.9
2007-04-10 06:44:17 51°13.678 2°55.829 111.6 3.5 290 11.9
2007-04-10 06:44:22 51°13.679 2°55.821 110.3 3.4 289 11.9
2007-04-10 06:44:27 51°13.681 2°55.815 108.6 3.3 288 11.9
2007-04-10 06:44:32 51°13.682 2°55.808 106.8 3.2 287 12.2
2007-04-10 06:44:36 51°13.683 2°55.802 105 3.1 285 12.2
2007-04-10 06:44:41 51°13.684 2°55.796 103 3.1 284 12.2
2007-04-10 06:44:46 51°13.684 2°55.789 101.2 3 282 12.3
2007-04-10 06:44:51 51°13.685 2°55.783 99.4 2.9 281 12.6
2007-04-10 06:44:56 51°13.685 2°55.777 97.5 2.8 280 13.1
2007-04-10 06:45:00 51°13.686 2°55.772 95.6 2.7 278 13.4
2007-04-10 06:45:05 51°13.686 2°55.766 93.6 2.7 277 13.7
2007-04-10 06:45:10 51°13.687 2°55.761 91.7 2.6 275 13.8
2007-04-10 06:45:15 51°13.687 2°55.755 89.8 2.5 273 14.4
2007-04-10 06:45:19 51°13.687 2°55.751 87.9 2.4 271 14
2007-04-10 06:45:24 51°13.687 2°55.746 86.2 2.3 270 13.6
2007-04-10 06:45:29 51°13.687 2°55.741 84.6 2.1 269 13.6
2007-04-10 06:45:34 51°13.686 2°55.737 82.7 1.9 269 13.7
2007-04-10 06:45:39 51°13.686 2°55.733 80.6 1.6 267 14.1
2007-04-10 06:45:44 51°13.686 2°55.73 78.3 1.5 266 14.8
2007-04-10 06:45:49 51°13.686 2°55.727 75.9 1.3 266 14.6
2007-04-10 06:45:54 51°13.686 2°55.724 73.8 1.2 265 14.4
2007-04-10 06:45:59 51°13.686 2°55.722 71.6 1 265 14.4
2007-04-10 06:46:03 51°13.686 2°55.721 69.5 0.9 265 14.4
2007-04-10 06:46:09 51°13.686 2°55.719 67.4 0.8 268 14.1
2007-04-10 06:46:14 51°13.686 2°55.717 64.9 0.6 271 14
2007-04-10 06:46:19 51°13.686 2°55.716 62 0.4 280 13.9
2007-04-10 06:46:24 51°13.686 2°55.716 58.9 0.3 300 13.9
2007-04-10 06:46:29 51°13.687 2°55.715 55.6 0.3 333 14
2007-04-10 06:46:34 51°13.688 2°55.716 52.1 0.5 11 13.8
2007-04-10 06:46:39 51°13.689 2°55.716 47.9 0.8 20 13.8
2007-04-10 06:46:44 51°13.69 2°55.718 42.9 1.1 21 13.8
2007-04-10 06:46:49 51°13.692 2°55.719 37.4 1.4 21 14
2007-04-10 06:46:54 51°13.694 2°55.719 31.6 1.6 15 14.1
2007-04-10 06:46:59 51°13.697 2°55.72 25.6 1.8 12 15.8
2007-04-10 06:47:04 51°13.699 2°55.721 19.6 2 7 17.5
2007-04-10 06:47:09 51°13.703 2°55.721 13.5 2.2 2 16
2007-04-10 06:47:14 51°13.706 2°55.721 7.6 2.4 356 14.1
2007-04-10 06:47:19 51°13.71 2°55.72 1.6 2.6 352 13.4
2007-04-10 06:47:24 51°13.713 2°55.719 355.6 2.9 347 13.6
2007-04-10 06:47:29 51°13.718 2°55.716 350 3.3 343 13.4
2007-04-10 06:47:34 51°13.723 2°55.713 345.3 3.7 339 12.7
2007-04-10 06:47:39 51°13.728 2°55.71 341.9 4 337 13.2
2007-04-10 06:47:44 51°13.733 2°55.706 340.4 4.4 336 13.2
2007-04-10 06:47:49 51°13.739 2°55.701 339.4 4.7 335 12.9
2007-04-10 06:47:54 51°13.745 2°55.697 339.1 5 335 13.4
2007-04-10 06:47:59 51°13.752 2°55.692 338.8 5.3 334 13.3
2007-04-10 06:48:04 51°13.759 2°55.686 338.4 5.6 334 12.7
2007-04-10 06:48:09 51°13.766 2°55.68 338.2 5.9 334 12.7
2007-04-10 06:48:14 51°13.774 2°55.674 337.9 6.2 333 12.6
2007-04-10 06:48:19 51°13.782 2°55.667 338 6.6 334 12.9
2007-04-10 06:48:24 51°13.791 2°55.661 338.6 6.9 335 12.8
2007-04-10 06:48:29 51°13.8 2°55.655 339 7.2 335 12.6
2007-04-10 06:48:34 51°13.809 2°55.648 339.5 7.4 335 12.7
2007-04-10 06:48:39 51°13.819 2°55.641 339.6 7.6 335 12.7
2007-04-10 06:48:44 51°13.829 2°55.634 340.2 6 336 12.5
2007-04-10 06:48:49 51°13.839 2°55.627 340.9 7.8 336 12.6
2007-04-10 06:48:54 51°13.849 2°55.62 341.1 8.2 336 12.6
2007-04-10 06:48:59 51°13.86 2°55.612 340.9 8.3 336 12.5
2007-04-10 06:49:04 51°13.871 2°55.605 340.9 8.4 336 12.5
2007-04-10 06:49:09 51°13.882 2°55.598 341.4 8.5 337 12.4
2007-04-10 06:49:14 51°13.893 2°55.59 341.3 8.6 336 12.5
2007-04-10 06:49:19 51°13.904 2°55.583 341 8.7 336 12.3
2007-04-10 06:49:24 51°13.915 2°55.575 340.8 7.2 336 12.5
2007-04-10 06:49:29 51°13.926 2°55.567 340.6 7.3 336 12.4
2007-04-10 06:49:34 51°13.937 2°55.559 341.1 8.9 337 13.1
2007-04-10 06:49:39 51°13.949 2°55.551 341.1 9 336 12.6
2007-04-10 06:49:44 51°13.96 2°55.543 340.7 8.9 336 12.7
2007-04-10 06:49:49 51°13.971 2°55.535 340.5 9 336 12.7
2007-04-10 06:49:54 51°13.983 2°55.527 340.5 9 336 12.7
2007-04-10 06:49:59 51°13.994 2°55.519 340.4 9 336 12.7
2007-04-10 06:50:04 51°14.005 2°55.511 340.4 9 337 12.7
2007-04-10 06:50:09 51°14.017 2°55.503 341 9 337 12.4
2007-04-10 06:50:14 51°14.028 2°55.495 341.4 9 337 12.6
2007-04-10 06:50:19 51°14.04 2°55.487 341.2 9 336 12.6
2007-04-10 06:50:24 51°14.051 2°55.479 341.1 9 336 12.6
2007-04-10 06:50:29 51°14.063 2°55.471 341.3 9.1 337 12.6
2007-04-10 06:50:34 51°14.074 2°55.463 341.2 9.1 336 12.6
2007-04-10 06:50:39 51°14.085 2°55.455 341 9.1 336 12.6
2007-04-10 06:50:44 51°14.097 2°55.446 340.5 9.1 335 12.6
2007-04-10 06:50:49 51°14.108 2°55.438 340.1 9.1 335 12.6
2007-04-10 06:50:54 51°14.12 2°55.429 339.3 9.1 334 12.6
2007-04-10 06:50:59 51°14.131 2°55.42 338.2 9.1 333 12.6
2007-04-10 06:51:04 51°14.142 2°55.411 337.6 9.1 333 12.6
2007-04-10 06:51:09 51°14.153 2°55.401 337.1 9.1 331 12.6
2007-04-10 06:51:14 51°14.164 2°55.391 335.8 9.1 330 12.5
2007-04-10 06:51:19 51°14.175 2°55.381 334.3 9.1 329 -999
2007-04-10 06:51:24 51°14.185 2°55.37 332.6 9.1 327 -999
2007-04-10 06:51:29 51°14.196 2°55.359 330.9 9.1 325 -999
2007-04-10 06:51:34 51°14.206 2°55.347 329 9.1 323 12.5
2007-04-10 06:51:39 51°14.216 2°55.334 327.3 9.1 322 -999
2007-04-10 06:51:44 51°14.225 2°55.321 325.8 9.1 320 -999
2007-04-10 06:51:50 51°14.237 2°55.305 324.1 9.1 318 -999
2007-04-10 06:51:55 51°14.246 2°55.291 321.8 9.1 316 -999
2007-04-10 06:52:01 51°14.256 2°55.274 319.7 9.1 314 12.6
2007-04-10 06:52:06 51°14.265 2°55.259 318.6 9.1 313 12.5
2007-04-10 06:52:11 51°14.274 2°55.244 317.4 9.1 312 12.5
2007-04-10 06:52:16 51°14.282 2°55.229 316.6 9.2 311 12.6
2007-04-10 06:52:20 51°14.289 2°55.217 315.6 9.2 310 12.7
2007-04-10 06:52:25 51°14.297 2°55.201 315 9.2 311 12.8
2007-04-10 06:52:30 51°14.305 2°55.186 315.1 9.2 311 12.5
2007-04-10 06:52:35 51°14.314 2°55.17 315.5 9.2 311 12.4
2007-04-10 06:52:39 51°14.32 2°55.158 315.7 9.2 311 12.4
2007-04-10 06:52:44 51°14.329 2°55.142 315.4 9.2 310 12.3
2007-04-10 06:52:49 51°14.337 2°55.127 315 9.2 310 12.2
2007-04-10 06:52:54 51°14.345 2°55.112 314.8 9.2 310 12.3
2007-04-10 06:52:59 51°14.353 2°55.096 314.7 9.2 310 12.3
2007-04-10 06:53:03 51°14.36 2°55.083 314.8 9.2 310 12.1
2007-04-10 06:53:09 51°14.37 2°55.065 314.4 9.2 309 12.1
2007-04-10 06:53:14 51°14.377 2°55.049 313.4 9.2 308 12.2
2007-04-10 06:53:19 51°14.385 2°55.032 312.1 9.2 307 12.3
2007-04-10 06:53:24 51°14.392 2°55.016 311.2 9.2 306 12.4
2007-04-10 06:53:29 51°14.4 2°54.999 310.5 9.2 305 12.3
2007-04-10 06:53:34 51°14.407 2°54.983 309.8 9.1 305 12.1
2007-04-10 06:53:39 51°14.414 2°54.966 308.5 9.1 303 12.2
2007-04-10 06:53:44 51°14.421 2°54.948 307.2 9.1 302 12.5
2007-04-10 06:53:49 51°14.427 2°54.931 305.1 9.1 299 12.6
2007-04-10 06:53:54 51°14.433 2°54.913 302.8 9.1 298 12.3
2007-04-10 06:53:59 51°14.438 2°54.894 300.1 9.2 294 12.3
2007-04-10 06:54:04 51°14.443 2°54.875 297.7 9.6 292 12.1
2007-04-10 06:54:09 51°14.447 2°54.854 294.6 9.8 288 12.2
2007-04-10 06:54:14 51°14.451 2°54.833 290.5 10.1 286 12.5
2007-04-10 06:54:19 51°14.454 2°54.81 288 10.3 282 12.5
2007-04-10 06:54:24 51°14.456 2°54.787 284.5 10.6 278 11.9
2007-04-10 06:54:29 51°14.457 2°54.763 280.6 11 274 12.2
2007-04-10 06:54:34 51°14.457 2°54.738 275.6 11.3 270 12
2007-04-10 06:54:39 51°14.456 2°54.712 272.1 11.7 268 12
2007-04-10 06:54:44 51°14.455 2°54.685 270.1 12 265 12
2007-04-10 06:54:49 51°14.453 2°54.659 267.8 12.3 262 12.1
2007-04-10 06:54:54 51°14.45 2°54.632 265.3 12.4 260 12
2007-04-10 06:54:59 51°14.445 2°54.605 261.8 12.5 255 11.9
2007-04-10 06:55:04 51°14.44 2°54.578 258.1 12.6 253 11.8
2007-04-10 06:55:09 51°14.434 2°54.552 254.7 12.8 249 11.9
2007-04-10 06:55:14 51°14.428 2°54.525 252.4 12.9 249 11.9
2007-04-10 06:55:19 51°14.421 2°54.499 251.5 13 248 11.9
2007-04-10 06:55:23 51°14.416 2°54.477 251.4 13 249 11.5
2007-04-10 06:55:29 51°14.407 2°54.446 251.5 13 248 11
2007-04-10 06:55:34 51°14.4 2°54.419 250.8 13 247 10.9
2007-04-10 06:55:39 51°14.393 2°54.393 249.3 13 246 10.7
2007-04-10 06:55:44 51°14.385 2°54.367 247.7 13 245 10.7
2007-04-10 06:55:49 51°14.378 2°54.341 247.6 13 245 10.6
2007-04-10 06:55:54 51°14.37 2°54.315 246.9 13 244 10.6
2007-04-10 06:55:59 51°14.362 2°54.29 246.8 13 244 10.6
2007-04-10 06:56:04 51°14.354 2°54.264 247 13 244 10.5
2007-04-10 06:56:09 51°14.346 2°54.237 246.7 13.1 245 10.5
2007-04-10 06:56:14 51°14.338 2°54.211 247.3 13 244 10.4
2007-04-10 06:56:19 51°14.33 2°54.186 246.1 13.1 243 10.5
2007-04-10 06:56:24 51°14.322 2°54.161 246.1 12.9 243 10.5
2007-04-10 06:56:29 51°14.313 2°54.135 245 13 242 10.5
2007-04-10 06:56:34 51°14.305 2°54.11 244.5 13.1 242 10.4
2007-04-10 06:56:39 51°14.296 2°54.084 244.1 13 241 10.4
2007-04-10 06:56:44 51°14.287 2°54.059 243.8 13 242 10.4
2007-04-10 06:56:49 51°14.278 2°54.034 244.1 13 241 10.5
2007-04-10 06:56:54 51°14.27 2°54.009 244 13.1 242 10.4
2007-04-10 06:56:59 51°14.261 2°53.983 244 13.1 241 10.4
2007-04-10 06:57:04 51°14.253 2°53.958 244.5 13 242 10.5
2007-04-10 06:57:09 51°14.244 2°53.933 244.4 12.9 242 10.5
2007-04-10 06:57:14 51°14.236 2°53.908 244.3 13 241 10.5
2007-04-10 06:57:19 51°14.227 2°53.883 243.7 13 241 10.5
2007-04-10 06:57:24 51°14.218 2°53.858 243.6 12.9 240 10.5
2007-04-10 06:57:29 51°14.21 2°53.833 243.3 12.9 241 10.5
2007-04-10 06:57:34 51°14.201 2°53.808 243.5 12.8 241 10.6
2007-04-10 06:57:39 51°14.192 2°53.784 243.8 12.8 240 10.6
2007-04-10 06:57:44 51°14.184 2°53.759 243.7 12.9 242 10.5
2007-04-10 06:57:49 51°14.175 2°53.734 243.8 12.8 241 10.5
2007-04-10 06:57:54 51°14.167 2°53.709 244.1 12.8 241 10.6
2007-04-10 06:57:59 51°14.158 2°53.685 243.5 12.8 240 10.6
2007-04-10 06:58:04 51°14.149 2°53.66 243.7 12.8 241 10.7
2007-04-10 06:58:09 51°14.14 2°53.635 243.6 12.8 240 10.7
2007-04-10 06:58:14 51°14.132 2°53.61 243.3 12.8 242 10.6
2007-04-10 06:58:19 51°14.123 2°53.586 244.1 12.8 241 10.7
2007-04-10 06:58:24 51°14.115 2°53.561 243.8 12.7 242 10.7
2007-04-10 06:58:29 51°14.106 2°53.537 244.1 12.7 240 10.7
2007-04-10 06:58:34 51°14.098 2°53.512 243.8 12.7 241 10.7
2007-04-10 06:58:39 51°14.09 2°53.487 243.8 12.7 242 10.7
2007-04-10 06:58:44 51°14.081 2°53.463 244 12.7 240 10.7
2007-04-10 06:58:49 51°14.073 2°53.438 243.5 12.7 242 10.7
2007-04-10 06:58:54 51°14.064 2°53.414 244 12.7 241 10.8
2007-04-10 06:58:59 51°14.056 2°53.389 243.9 12.7 241 10.8
2007-04-10 06:59:04 51°14.047 2°53.365 243.5 12.8 240 10.9
2007-04-10 06:59:09 51°14.038 2°53.34 243.4 12.8 242 10.9
2007-04-10 06:59:14 51°14.03 2°53.315 244.2 12.7 241 10.9
2007-04-10 06:59:19 51°14.021 2°53.29 244 12.8 242 10.9
2007-04-10 06:59:24 51°14.013 2°53.266 244 12.7 240 10.9
2007-04-10 06:59:29 51°14.004 2°53.241 243.7 12.8 241 11
2007-04-10 06:59:34 51°13.996 2°53.216 243.6 12.8 242 11
2007-04-10 06:59:39 51°13.987 2°53.192 244.2 12.8 240 11
2007-04-10 06:59:44 51°13.979 2°53.167 244 12.7 241 11
2007-04-10 06:59:49 51°13.969 2°53.143 243.6 12.8 240 11.1
2007-04-10 06:59:54 51°13.961 2°53.117 243.7 12.8 242 11.1
2007-04-10 06:59:59 51°13.952 2°53.093 243.8 12.8 239 11
2007-04-10 07:00:04 51°13.944 2°53.068 243.8 12.8 243 11.2
2007-04-10 07:00:09 51°13.935 2°53.044 244.2 12.7 239 11.2
2007-04-10 07:00:14 51°13.927 2°53.019 243.9 12.8 243 11.1
2007-04-10 07:00:19 51°13.918 2°52.994 244.2 12.8 240 11.2
2007-04-10 07:00:24 51°13.91 2°52.969 244.3 12.7 242 11.3
2007-04-10 07:00:29 51°13.901 2°52.945 244.5 12.8 240 11.2
2007-04-10 07:00:34 51°13.893 2°52.92 244 12.8 242 11.3
2007-04-10 07:00:39 51°13.884 2°52.895 244.3 12.8 241 11.3
2007-04-10 07:00:44 51°13.876 2°52.871 244.3 12.8 242 11.3
2007-04-10 07:00:49 51°13.867 2°52.846 244.4 12.8 241 11.3
2007-04-10 07:00:54 51°13.859 2°52.821 244.3 12.8 241 11.4
2007-04-10 07:00:59 51°13.85 2°52.796 244.3 12.7 242 11.4
2007-04-10 07:01:04 51°13.842 2°52.772 244.1 12.8 241 11.3
2007-04-10 07:01:09 51°13.833 2°52.747 244 12.8 241 11.4
2007-04-10 07:01:14 51°13.825 2°52.722 244 12.8 242 11.4
2007-04-10 07:01:19 51°13.816 2°52.698 244.3 12.7 240 11.4
2007-04-10 07:01:23 51°13.809 2°52.677 244.2 12.8 242 11.4
2007-04-10 07:01:29 51°13.799 2°52.648 243.9 12.9 240 11.4
2007-04-10 07:01:34 51°13.791 2°52.623 243.8 12.8 242 11.4
2007-04-10 07:01:39 51°13.782 2°52.599 244 12.8 240 11.4
2007-04-10 07:01:44 51°13.773 2°52.573 244 12.8 243 11.5
2007-04-10 07:01:49 51°13.764 2°52.549 244.5 12.8 239 11.4
2007-04-10 07:01:54 51°13.756 2°52.524 243.8 12.8 243 11.5
2007-04-10 07:01:59 51°13.747 2°52.5 244.1 12.8 239 11.5
2007-04-10 07:02:04 51°13.739 2°52.475 243.8 12.8 242 11.6
2007-04-10 07:02:09 51°13.73 2°52.45 244 12.8 240 11.5
2007-04-10 07:02:14 51°13.721 2°52.425 243.8 12.9 242 11.5
2007-04-10 07:02:19 51°13.713 2°52.401 244.5 12.8 241 11.5
2007-04-10 07:02:24 51°13.704 2°52.376 244.3 12.8 242 11.5
2007-04-10 07:02:29 51°13.696 2°52.351 244.2 12.8 241 11.6
2007-04-10 07:02:34 51°13.687 2°52.326 244.5 12.8 241 11.6
2007-04-10 07:02:39 51°13.679 2°52.302 244.1 12.8 241 11.7
2007-04-10 07:02:44 51°13.67 2°52.277 243.9 12.8 241 11.6
2007-04-10 07:02:49 51°13.662 2°52.252 244.2 12.8 240 11.6
2007-04-10 07:02:54 51°13.653 2°52.228 243.9 12.8 241 11.6
2007-04-10 07:02:59 51°13.644 2°52.203 244 12.8 240 11.7
2007-04-10 07:03:04 51°13.636 2°52.178 244.1 12.8 242 11.7
2007-04-10 07:03:09 51°13.627 2°52.153 244.8 12.8 240 11.6
2007-04-10 07:03:14 51°13.619 2°52.128 244 12.8 242 11.6
2007-04-10 07:03:19 51°13.61 2°52.104 244.2 12.7 240 11.6
2007-04-10 07:03:24 51°13.602 2°52.079 243.6 12.8 241 11.6
2007-04-10 07:03:29 51°13.593 2°52.055 243.8 12.7 241 11.6
2007-04-10 07:03:34 51°13.584 2°52.031 244.1 12.7 240 11.6
2007-04-10 07:03:39 51°13.576 2°52.006 243.8 12.7 242 11.6
2007-04-10 07:03:44 51°13.567 2°51.982 243.8 12.7 239 11.6
2007-04-10 07:03:49 51°13.559 2°51.957 243.9 12.7 242 11.7
2007-04-10 07:03:54 51°13.55 2°51.933 243.9 12.7 240 11.7
2007-04-10 07:03:59 51°13.541 2°51.908 243.7 12.8 241 11.8
2007-04-10 07:04:04 51°13.533 2°51.883 244.5 12.7 242 11.7
2007-04-10 07:04:09 51°13.524 2°51.859 244.4 12.7 240 11.7
2007-04-10 07:04:14 51°13.516 2°51.834 244.5 12.7 242 11.7
2007-04-10 07:04:19 51°13.507 2°51.81 244.5 12.7 241 11.7
2007-04-10 07:04:24 51°13.499 2°51.785 244.6 12.7 242 11.7
2007-04-10 07:04:29 51°13.49 2°51.761 244.2 12.7 240 11.7
2007-04-10 07:04:34 51°13.482 2°51.736 244.5 12.6 242 11.7
2007-04-10 07:04:39 51°13.473 2°51.712 243.8 12.7 240 11.8
2007-04-10 07:04:44 51°13.465 2°51.687 244.2 12.7 242 11.7
2007-04-10 07:04:49 51°13.456 2°51.663 244.1 12.7 242 11.8
2007-04-10 07:04:54 51°13.448 2°51.638 244.4 12.7 241 11.8
2007-04-10 07:04:59 51°13.439 2°51.613 244.2 12.7 241 11.8
2007-04-10 07:05:04 51°13.431 2°51.589 244.5 12.7 241 11.8
2007-04-10 07:05:09 51°13.422 2°51.564 244.5 12.7 241 11.8
2007-04-10 07:05:14 51°13.414 2°51.54 244.3 12.8 241 11.9
2007-04-10 07:05:19 51°13.405 2°51.515 244.5 12.7 241 11.8
2007-04-10 07:05:24 51°13.397 2°51.491 244.5 12.7 241 11.8
2007-04-10 07:05:29 51°13.388 2°51.466 244.3 12.7 242 11.8
2007-04-10 07:05:34 51°13.38 2°51.441 244.6 12.7 241 11.8
2007-04-10 07:05:39 51°13.371 2°51.417 244.5 12.8 241 11.8
2007-04-10 07:05:44 51°13.363 2°51.392 244.5 12.7 242 11.9
2007-04-10 07:05:49 51°13.354 2°51.367 244.8 12.7 241 11.8
2007-04-10 07:05:54 51°13.346 2°51.342 244.6 12.8 242 11.9
2007-04-10 07:05:59 51°13.338 2°51.318 244.9 12.7 241 11.9
2007-04-10 07:06:04 51°13.329 2°51.293 244.6 12.7 241 11.9
2007-04-10 07:06:09 51°13.32 2°51.269 243.9 12.8 241 11.9
2007-04-10 07:06:14 51°13.312 2°51.244 244.5 12.7 242 11.9
2007-04-10 07:06:19 51°13.303 2°51.219 244.5 12.8 241 11.9
2007-04-10 07:06:24 51°13.295 2°51.194 244.5 12.8 242 12
2007-04-10 07:06:29 51°13.286 2°51.17 244.5 12.7 241 11.9
2007-04-10 07:06:34 51°13.278 2°51.145 244.5 12.8 242 11.9
2007-04-10 07:06:39 51°13.269 2°51.12 244.6 12.8 241 11.9
2007-04-10 07:06:44 51°13.261 2°51.095 244.6 12.7 242 11.9
2007-04-10 07:06:49 51°13.252 2°51.071 244 12.8 241 12
2007-04-10 07:06:54 51°13.244 2°51.046 244.1 12.8 242 12
2007-04-10 07:06:59 51°13.235 2°51.021 244.2 12.8 240 12
2007-04-10 07:07:04 51°13.227 2°50.997 244.2 12.8 241 12
2007-04-10 07:07:09 51°13.218 2°50.972 244.5 12.8 241 12.1
2007-04-10 07:07:14 51°13.209 2°50.947 244.5 12.8 241 12
2007-04-10 07:07:19 51°13.201 2°50.922 244.5 12.8 241 12
2007-04-10 07:07:24 51°13.192 2°50.897 244.1 12.8 241 12
2007-04-10 07:07:29 51°13.184 2°50.873 243.9 12.9 241 12.1
2007-04-10 07:07:34 51°13.175 2°50.848 244.2 12.9 241 12.1
2007-04-10 07:07:39 51°13.166 2°50.823 244.5 12.9 241 12.1
2007-04-10 07:07:44 51°13.158 2°50.798 244.5 12.9 241 12
2007-04-10 07:07:49 51°13.149 2°50.773 244.2 12.9 241 12.1
2007-04-10 07:07:54 51°13.141 2°50.748 244.3 12.9 241 12.1
2007-04-10 07:07:59 51°13.132 2°50.723 244 13 241 12.2
2007-04-10 07:08:04 51°13.123 2°50.698 244 12.9 241 12.2
2007-04-10 07:08:09 51°13.114 2°50.673 243.8 12.9 240 12.2
2007-04-10 07:08:14 51°13.106 2°50.648 244.1 12.8 241 12.2
2007-04-10 07:08:19 51°13.097 2°50.624 243.9 12.9 241 12.2
2007-04-10 07:08:24 51°13.088 2°50.599 243.9 12.9 241 12.3
2007-04-10 07:08:29 51°13.079 2°50.574 244.5 12.9 241 12.3
2007-04-10 07:08:34 51°13.071 2°50.549 244.3 12.9 242 12.2
2007-04-10 07:08:39 51°13.062 2°50.524 244.4 12.9 241 12.3
2007-04-10 07:08:44 51°13.054 2°50.499 244.5 12.9 242 12.3
2007-04-10 07:08:49 51°13.045 2°50.474 244.5 12.9 241 12.3
2007-04-10 07:08:54 51°13.036 2°50.449 244.8 12.9 242 12.3
2007-04-10 07:08:59 51°13.028 2°50.424 244.3 12.9 241 12.3
2007-04-10 07:09:04 51°13.019 2°50.399 244 12.9 241 12.3
2007-04-10 07:09:09 51°13.01 2°50.374 243.9 12.9 241 12.3
2007-04-10 07:09:14 51°13.001 2°50.349 244.2 12.9 240 12.3
2007-04-10 07:09:19 51°12.993 2°50.324 243.9 13 242 12.3
2007-04-10 07:09:24 51°12.984 2°50.3 244.3 12.9 241 12.4
2007-04-10 07:09:29 51°12.975 2°50.275 244 12.9 240 12.3
2007-04-10 07:09:34 51°12.966 2°50.25 243.7 12.9 241 12.3
2007-04-10 07:09:39 51°12.957 2°50.225 244 12.9 240 12.3
2007-04-10 07:09:44 51°12.949 2°50.2 243.7 12.9 241 12.4
2007-04-10 07:09:49 51°12.94 2°50.175 243.8 13 240 12.5
2007-04-10 07:09:54 51°12.931 2°50.15 243.6 13 242 12.4
2007-04-10 07:09:59 51°12.922 2°50.126 244.1 12.9 240 12.4
2007-04-10 07:10:04 51°12.914 2°50.1 244 12.9 241 12.4
2007-04-10 07:10:09 51°12.905 2°50.075 244.4 12.9 241 12.4
2007-04-10 07:10:14 51°12.896 2°50.051 244.4 12.9 241 12.4
2007-04-10 07:10:19 51°12.887 2°50.026 243.8 13 240 12.4
2007-04-10 07:10:24 51°12.879 2°50 244.5 12.9 243 12.4
2007-04-10 07:10:29 51°12.87 2°49.976 243.8 12.9 240 12.4
2007-04-10 07:10:34 51°12.862 2°49.95 244 13 242 12.4
2007-04-10 07:10:39 51°12.853 2°49.926 244.5 13 241 12.5
2007-04-10 07:10:44 51°12.844 2°49.901 244.1 12.9 240 12.5
2007-04-10 07:10:49 51°12.835 2°49.875 243.7 13 241 12.5
2007-04-10 07:10:54 51°12.826 2°49.851 244 13 241 12.5
2007-04-10 07:10:59 51°12.818 2°49.825 244.2 13 242 12.5
2007-04-10 07:11:04 51°12.809 2°49.8 244.2 12.9 240 12.6
2007-04-10 07:11:09 51°12.801 2°49.775 244.3 13 241 12.5
2007-04-10 07:11:14 51°12.792 2°49.75 244 13 241 12.6
2007-04-10 07:11:19 51°12.783 2°49.725 244.1 12.9 241 12.5
2007-04-10 07:11:24 51°12.774 2°49.7 243.8 13 240 12.5
2007-04-10 07:11:29 51°12.766 2°49.675 244.1 13 242 12.5
2007-04-10 07:11:34 51°12.757 2°49.65 244.2 13 240 12.6
2007-04-10 07:11:39 51°12.748 2°49.625 244.1 13 241 12.5
2007-04-10 07:11:44 51°12.74 2°49.6 244 12.9 242 12.6
2007-04-10 07:11:49 51°12.731 2°49.575 244.2 13 241 12.5
2007-04-10 07:11:54 51°12.723 2°49.549 244.2 13 242 12.5
2007-04-10 07:11:59 51°12.714 2°49.524 244.4 13 241 12.6
2007-04-10 07:12:04 51°12.705 2°49.499 244.3 13 242 12.6
2007-04-10 07:12:09 51°12.696 2°49.474 244.5 13 241 12.6
2007-04-10 07:12:14 51°12.688 2°49.449 244.4 12.9 242 12.5
2007-04-10 07:12:19 51°12.679 2°49.424 244 13 240 12.6
2007-04-10 07:12:24 51°12.67 2°49.399 244 13 241 12.7
2007-04-10 07:12:29 51°12.662 2°49.374 244 13 240 12.6
2007-04-10 07:12:34 51°12.653 2°49.349 244.1 13 242 12.6
2007-04-10 07:12:39 51°12.645 2°49.323 244.4 13 241 12.6
2007-04-10 07:12:44 51°12.636 2°49.298 244.4 13 242 12.7
2007-04-10 07:12:49 51°12.627 2°49.273 244.6 13 241 12.7
2007-04-10 07:12:54 51°12.619 2°49.248 244.3 12.9 241 12.7
2007-04-10 07:12:59 51°12.61 2°49.223 244.1 13 241 12.7
2007-04-10 07:13:04 51°12.602 2°49.197 244.5 13 242 12.8
2007-04-10 07:13:09 51°12.592 2°49.173 244.2 13 240 12.7
2007-04-10 07:13:14 51°12.584 2°49.147 244 13 243 12.8
2007-04-10 07:13:19 51°12.575 2°49.122 244.5 13 240 12.8
2007-04-10 07:13:24 51°12.567 2°49.097 244.2 13 242 12.7
2007-04-10 07:13:29 51°12.558 2°49.071 244.2 13 241 12.7
2007-04-10 07:13:34 51°12.55 2°49.046 244.8 12.9 243 12.8
2007-04-10 07:13:39 51°12.541 2°49.021 244.3 13 240 12.7
2007-04-10 07:13:44 51°12.532 2°48.996 244.4 13 243 12.8
2007-04-10 07:13:49 51°12.523 2°48.971 244 13 240 12.8
2007-04-10 07:13:54 51°12.515 2°48.945 243.8 13 243 12.7
2007-04-10 07:13:59 51°12.506 2°48.92 244 13.1 240 12.8
2007-04-10 07:14:04 51°12.498 2°48.895 244.6 13 242 12.7
2007-04-10 07:14:09 51°12.489 2°48.87 244.2 13 241 12.8
2007-04-10 07:14:14 51°12.48 2°48.844 244.3 13 242 12.8
2007-04-10 07:14:19 51°12.471 2°48.819 244.3 13.1 241 12.8
2007-04-10 07:14:24 51°12.463 2°48.794 244.5 13 242 12.7
2007-04-10 07:14:29 51°12.454 2°48.769 244.5 13.1 240 12.8
2007-04-10 07:14:34 51°12.446 2°48.743 244.3 13.1 242 12.8
2007-04-10 07:14:39 51°12.437 2°48.718 244.5 13 241 12.8
2007-04-10 07:14:44 51°12.428 2°48.692 244.5 13.1 242 12.8
2007-04-10 07:14:49 51°12.419 2°48.667 244.3 13.1 241 12.8
2007-04-10 07:14:54 51°12.411 2°48.642 244.3 13.1 242 12.8
2007-04-10 07:14:59 51°12.402 2°48.617 244.5 13 242 12.9
2007-04-10 07:15:04 51°12.393 2°48.592 244.6 13.1 240 12.8
2007-04-10 07:15:09 51°12.385 2°48.566 244.2 13.1 243 12.9
2007-04-10 07:15:14 51°12.376 2°48.541 244.4 13 240 12.9
2007-04-10 07:15:19 51°12.368 2°48.516 244.1 13 242 12.9
2007-04-10 07:15:24 51°12.359 2°48.491 244.1 13.1 240 12.9
2007-04-10 07:15:29 51°12.35 2°48.465 244.2 13.1 242 12.9
2007-04-10 07:15:34 51°12.341 2°48.441 244.4 13 240 12.8
2007-04-10 07:15:39 51°12.333 2°48.415 243.9 13.1 241 12.9
2007-04-10 07:15:43 51°12.325 2°48.395 244 13.1 241 12.9
2007-04-10 07:15:49 51°12.315 2°48.365 244.3 13 241 12.9
2007-04-10 07:15:54 51°12.306 2°48.339 244 13.1 241 12.8
2007-04-10 07:15:59 51°12.298 2°48.314 244.5 13.1 242 12.9
2007-04-10 07:16:04 51°12.289 2°48.289 244.8 13 242 12.9
2007-04-10 07:16:09 51°12.281 2°48.263 244.8 13.1 242 12.8
2007-04-10 07:16:14 51°12.272 2°48.238 244.6 13.1 242 12.9
2007-04-10 07:16:19 51°12.263 2°48.213 245.1 13 241 12.9
2007-04-10 07:16:24 51°12.255 2°48.187 244.4 13.1 242 12.8
2007-04-10 07:16:29 51°12.246 2°48.162 244.2 13.1 242 13
2007-04-10 07:16:34 51°12.237 2°48.137 244.6 13 240 12.9
2007-04-10 07:16:39 51°12.228 2°48.111 243.8 13.2 242 12.9
2007-04-10 07:16:44 51°12.22 2°48.086 244.5 13.1 241 12.9
2007-04-10 07:16:49 51°12.211 2°48.06 244.4 13.1 242 12.9
2007-04-10 07:16:54 51°12.202 2°48.035 244.1 13.2 242 13
2007-04-10 07:16:59 51°12.194 2°48.009 244.5 13.1 242 13
2007-04-10 07:17:04 51°12.186 2°47.983 245.5 13.1 245 13
2007-04-10 07:17:09 51°12.178 2°47.957 247.1 13.2 243 12.9
2007-04-10 07:17:14 51°12.171 2°47.93 248 13.2 247 13
2007-04-10 07:17:19 51°12.163 2°47.904 248.7 13.2 245 13
2007-04-10 07:17:24 51°12.157 2°47.876 250.4 13.2 251 13
2007-04-10 07:17:29 51°12.15 2°47.849 252.2 13.2 249 13
2007-04-10 07:17:34 51°12.145 2°47.822 253.3 13.2 252 13
2007-04-10 07:17:39 51°12.138 2°47.794 254.1 13.2 250 13.1
2007-04-10 07:17:44 51°12.134 2°47.766 255.1 13.1 254 13.1
2007-04-10 07:17:49 51°12.127 2°47.739 255.4 13.2 252 13.2
2007-04-10 07:17:54 51°12.123 2°47.711 255.7 13.2 254 13.2
2007-04-10 07:17:59 51°12.117 2°47.683 256.4 13.2 252 13.2
2007-04-10 07:18:04 51°12.112 2°47.655 256.2 13.2 254 13.2
2007-04-10 07:18:09 51°12.106 2°47.627 256.3 13.2 252 13.2
2007-04-10 07:18:14 51°12.101 2°47.599 256.4 13.2 254 13.2
2007-04-10 07:18:19 51°12.096 2°47.571 256.2 13.3 252 13.3
2007-04-10 07:18:24 51°12.091 2°47.543 256.3 13.2 254 13.4
2007-04-10 07:18:29 51°12.085 2°47.516 256.5 13.2 252 13.4
2007-04-10 07:18:34 51°12.08 2°47.488 256.2 13.2 253 13.3
2007-04-10 07:18:39 51°12.074 2°47.46 256 13.2 253 13.4
2007-04-10 07:18:44 51°12.069 2°47.432 256.2 13.1 253 13.5
2007-04-10 07:18:49 51°12.063 2°47.404 255.4 13.2 252 13.4
2007-04-10 07:18:54 51°12.058 2°47.376 255.7 13.2 253 13.5
2007-04-10 07:18:59 51°12.052 2°47.349 255.4 13.2 252 13.5
2007-04-10 07:19:04 51°12.047 2°47.321 255.4 13.2 253 13.5
2007-04-10 07:19:09 51°12.042 2°47.293 256.3 13.2 254 13.5
2007-04-10 07:19:14 51°12.037 2°47.265 257.4 13.2 254 13.5
2007-04-10 07:19:19 51°12.032 2°47.237 257.6 13.2 255 13.6
2007-04-10 07:19:24 51°12.027 2°47.209 258 13.2 255 13.5
2007-04-10 07:19:29 51°12.023 2°47.18 258.3 13.2 255 13.6
2007-04-10 07:19:34 51°12.018 2°47.152 258.3 13.2 254 13.6
2007-04-10 07:19:39 51°12.013 2°47.124 257.7 13.2 254 13.6
2007-04-10 07:19:44 51°12.008 2°47.096 257.5 13.2 254 13.5
2007-04-10 07:19:49 51°12.003 2°47.068 257.5 13.2 255 13.6
2007-04-10 07:19:54 51°11.998 2°47.04 257.5 13.3 254 13.5
2007-04-10 07:19:59 51°11.993 2°47.012 257.7 13.2 255 13.6
2007-04-10 07:20:04 51°11.988 2°46.983 258.3 13.2 256 13.6
2007-04-10 07:20:09 51°11.984 2°46.955 259 13.2 255 13.6
2007-04-10 07:20:14 51°11.98 2°46.927 259.1 13.2 257 13.7
2007-04-10 07:20:19 51°11.975 2°46.898 259.6 13.2 256 13.7
2007-04-10 07:20:24 51°11.971 2°46.87 259.7 13.2 257 13.6
2007-04-10 07:20:29 51°11.967 2°46.842 259.9 13.2 257 13.6
2007-04-10 07:20:34 51°11.963 2°46.813 259.9 13.2 257 13.7
2007-04-10 07:20:39 51°11.958 2°46.785 259.8 13.2 256 13.7
2007-04-10 07:20:44 51°11.954 2°46.757 259.7 13.2 257 13.8
2007-04-10 07:20:49 51°11.95 2°46.728 259.7 13.2 256 13.7
2007-04-10 07:20:54 51°11.946 2°46.7 259.9 13.2 258 13.8
2007-04-10 07:20:59 51°11.941 2°46.672 260.3 13.1 256 13.8
2007-04-10 07:21:04 51°11.937 2°46.643 259.9 13.2 258 13.8
2007-04-10 07:21:09 51°11.933 2°46.615 259.8 13.1 256 13.8
2007-04-10 07:21:14 51°11.929 2°46.587 259.8 13.2 256 13.8
2007-04-10 07:21:19 51°11.925 2°46.559 259.4 13.2 257 13.8
2007-04-10 07:21:24 51°11.92 2°46.53 259.8 13.2 256 13.9
2007-04-10 07:21:29 51°11.916 2°46.502 259.3 13.2 257 13.8
2007-04-10 07:21:34 51°11.912 2°46.474 259.8 13.2 256 13.8
2007-04-10 07:21:39 51°11.908 2°46.446 259.8 13.1 257 13.8
2007-04-10 07:21:44 51°11.904 2°46.417 260.1 13.1 257 13.8
2007-04-10 07:21:49 51°11.9 2°46.389 260.1 13.2 258 13.8
2007-04-10 07:21:54 51°11.896 2°46.361 260.3 13.2 257 13.9
2007-04-10 07:21:59 51°11.892 2°46.332 260 13.2 257 13.8
2007-04-10 07:22:03 51°11.888 2°46.31 260 13.1 257 13.8
2007-04-10 07:22:09 51°11.883 2°46.276 260 13.1 256 13.9
2007-04-10 07:22:14 51°11.879 2°46.248 259.8 13.2 257 13.9
2007-04-10 07:22:19 51°11.875 2°46.22 260 13.2 256 13.9
2007-04-10 07:22:24 51°11.871 2°46.191 259.8 13.1 257 13.9
2007-04-10 07:22:29 51°11.866 2°46.163 259.4 13.1 256 13.9
2007-04-10 07:22:34 51°11.862 2°46.135 259.4 13.1 257 13.8
2007-04-10 07:22:39 51°11.858 2°46.107 259.3 13.2 256 14
2007-04-10 07:22:44 51°11.854 2°46.079 259.2 13.2 256 13.9
2007-04-10 07:22:49 51°11.85 2°46.05 259.1 13.1 257 13.9
2007-04-10 07:22:54 51°11.846 2°46.022 260.1 13.1 258 13.9
2007-04-10 07:22:59 51°11.842 2°45.994 260.6 13.2 258 13.9
2007-04-10 07:23:04 51°11.839 2°45.965 261.4 13.2 260 13.9
2007-04-10 07:23:09 51°11.835 2°45.936 262 13.1 259 13.9
2007-04-10 07:23:14 51°11.832 2°45.908 262 13.2 260 13.9
2007-04-10 07:23:19 51°11.829 2°45.879 262.4 13.2 259 13.9
2007-04-10 07:23:24 51°11.825 2°45.851 262.8 13.1 260 13.9
2007-04-10 07:23:29 51°11.822 2°45.822 262.4 13.2 259 13.9
2007-04-10 07:23:34 51°11.819 2°45.794 262.4 13.2 260 13.9
2007-04-10 07:23:39 51°11.815 2°45.765 262.3 13.1 259 13.8
2007-04-10 07:23:44 51°11.812 2°45.737 262.3 13.1 259 13.8
2007-04-10 07:23:49 51°11.808 2°45.708 262.2 13.1 260 13.8
2007-04-10 07:23:54 51°11.805 2°45.68 262.3 13.2 258 13.9
2007-04-10 07:23:59 51°11.801 2°45.651 262.3 13.2 259 13.9
2007-04-10 07:24:04 51°11.798 2°45.623 262.3 13.2 259 13.9
2007-04-10 07:24:09 51°11.794 2°45.594 262.4 13.2 259 13.9
2007-04-10 07:24:14 51°11.791 2°45.566 262.9 13.2 259 13.8
2007-04-10 07:24:19 51°11.787 2°45.537 262.7 13.2 259 13.8
2007-04-10 07:24:24 51°11.784 2°45.508 262.7 13.2 259 13.8
2007-04-10 07:24:29 51°11.78 2°45.48 262.5 13.3 258 13.8
2007-04-10 07:24:34 51°11.777 2°45.451 262.4 13.3 259 13.9
2007-04-10 07:24:39 51°11.773 2°45.422 262.7 13.3 258 13.8
2007-04-10 07:24:44 51°11.77 2°45.394 262.7 13.2 260 13.8
2007-04-10 07:24:49 51°11.766 2°45.365 262.7 13.3 258 13.8
2007-04-10 07:24:54 51°11.762 2°45.336 262.2 13.3 259 13.8
2007-04-10 07:24:59 51°11.759 2°45.308 262.5 13.3 259 13.8
2007-04-10 07:25:04 51°11.755 2°45.279 262.6 13.3 259 13.9
2007-04-10 07:25:09 51°11.752 2°45.25 262.7 13.3 259 13.7
2007-04-10 07:25:14 51°11.748 2°45.221 262.7 13.3 259 13.8
2007-04-10 07:25:19 51°11.745 2°45.192 262.7 13.3 259 13.7
2007-04-10 07:25:24 51°11.742 2°45.164 262.9 13.3 260 13.7
2007-04-10 07:25:29 51°11.738 2°45.135 262.8 13.3 259 13.7
2007-04-10 07:25:34 51°11.734 2°45.106 262.7 13.3 260 13.7
2007-04-10 07:25:39 51°11.731 2°45.077 263 13.3 259 13.7
2007-04-10 07:25:44 51°11.728 2°45.048 262.7 13.3 260 13.7
2007-04-10 07:25:49 51°11.724 2°45.02 263.1 13.4 259 13.6
2007-04-10 07:25:54 51°11.721 2°44.991 262.9 13.3 260 13.7
2007-04-10 07:25:59 51°11.717 2°44.962 262.8 13.3 258 13.6
2007-04-10 07:26:04 51°11.714 2°44.933 262.6 13.3 260 13.6
2007-04-10 07:26:09 51°11.71 2°44.904 262.7 13.3 258 13.5
2007-04-10 07:26:14 51°11.706 2°44.875 262.2 13.4 258 13.6
2007-04-10 07:26:19 51°11.703 2°44.846 262.7 13.4 260 13.5
2007-04-10 07:26:24 51°11.699 2°44.817 263 13.3 260 13.6
2007-04-10 07:26:29 51°11.696 2°44.789 263.1 13.3 259 13.5
2007-04-10 07:26:34 51°11.693 2°44.759 263.2 13.5 260 13.5
2007-04-10 07:26:39 51°11.689 2°44.73 263.2 13.4 260 13.5
2007-04-10 07:26:44 51°11.686 2°44.702 263 13.3 259 13.4
2007-04-10 07:26:49 51°11.682 2°44.673 262.5 13.4 260 13.5
2007-04-10 07:26:54 51°11.679 2°44.644 262.8 13.3 260 13.4
2007-04-10 07:26:59 51°11.675 2°44.615 262.7 13.3 259 13.4
2007-04-10 07:27:04 51°11.672 2°44.586 262.4 13.4 259 13.3
2007-04-10 07:27:09 51°11.668 2°44.557 262.3 13.4 259 13.4
2007-04-10 07:27:14 51°11.665 2°44.528 262.2 13.3 258 13.3
2007-04-10 07:27:19 51°11.661 2°44.499 262 13.3 260 13.4
2007-04-10 07:27:24 51°11.657 2°44.47 262 13.4 257 13.4
2007-04-10 07:27:29 51°11.654 2°44.441 262 13.4 260 13.2
2007-04-10 07:27:34 51°11.65 2°44.412 262.1 13.4 258 13.3
2007-04-10 07:27:39 51°11.647 2°44.383 262.2 13.4 260 13.2
2007-04-10 07:27:44 51°11.643 2°44.354 262.2 13.4 259 13.3
2007-04-10 07:27:49 51°11.64 2°44.325 261.8 13.4 258 13.2
2007-04-10 07:27:54 51°11.636 2°44.296 261.8 13.4 260 13.2
2007-04-10 07:27:59 51°11.633 2°44.267 262 13.5 259 13.2
2007-04-10 07:28:04 51°11.63 2°44.238 262.4 13.5 260 13.1
2007-04-10 07:28:09 51°11.626 2°44.209 262.5 13.4 259 13.2
2007-04-10 07:28:14 51°11.623 2°44.18 262.7 13.4 259 13
2007-04-10 07:28:19 51°11.619 2°44.151 262.1 13.4 260 13
2007-04-10 07:28:24 51°11.616 2°44.122 262.2 13.4 259 13
2007-04-10 07:28:29 51°11.612 2°44.093 262.3 13.4 259 13
2007-04-10 07:28:34 51°11.609 2°44.063 262.5 13.4 260 12.9
2007-04-10 07:28:39 51°11.605 2°44.034 262.4 13.5 259 12.9
2007-04-10 07:28:44 51°11.602 2°44.005 262.2 13.4 259 12.9
2007-04-10 07:28:49 51°11.598 2°43.976 262.1 13.4 259 12.9
2007-04-10 07:28:54 51°11.595 2°43.947 262.2 13.4 259 12.9
2007-04-10 07:28:59 51°11.592 2°43.918 262.3 13.4 260 12.8
2007-04-10 07:29:04 51°11.589 2°43.889 262.7 13.5 260 12.8
2007-04-10 07:29:09 51°11.585 2°43.86 262.6 13.5 259 12.9
2007-04-10 07:29:14 51°11.582 2°43.83 262.4 13.4 260 12.8
2007-04-10 07:29:19 51°11.578 2°43.801 262.1 13.4 258 12.8
2007-04-10 07:29:24 51°11.575 2°43.772 262 13.4 260 12.8
2007-04-10 07:29:29 51°11.571 2°43.743 261.6 13.4 258 12.8
2007-04-10 07:29:34 51°11.567 2°43.714 261.6 13.5 259 12.6
2007-04-10 07:29:39 51°11.564 2°43.685 262.4 13.5 260 12.7
2007-04-10 07:29:44 51°11.561 2°43.656 262.6 13.4 260 12.7
2007-04-10 07:29:49 51°11.558 2°43.627 262.6 13.3 260 12.7
2007-04-10 07:29:54 51°11.554 2°43.598 262.4 13.3 259 12.6
2007-04-10 07:29:59 51°11.551 2°43.569 262.3 13.4 260 12.6
2007-04-10 07:30:04 51°11.547 2°43.54 262.3 13.4 259 12.5
2007-04-10 07:30:09 51°11.544 2°43.511 262.3 13.4 258 12.6
2007-04-10 07:30:14 51°11.539 2°43.482 261.3 13.3 257 12.4
2007-04-10 07:30:19 51°11.534 2°43.454 259.1 13.2 254 12.6
2007-04-10 07:30:24 51°11.529 2°43.426 258.3 13.3 255 12.3
2007-04-10 07:30:29 51°11.524 2°43.398 257.6 13.3 253 12.4
2007-04-10 07:30:34 51°11.519 2°43.37 256.9 13.3 254 12.3
2007-04-10 07:30:39 51°11.513 2°43.341 256.3 13.3 253 12.4
2007-04-10 07:30:44 51°11.507 2°43.314 255.4 13.3 251 12.3
2007-04-10 07:30:49 51°11.502 2°43.286 254.2 13.3 251 12.4
2007-04-10 07:30:54 51°11.495 2°43.258 253.6 13.3 250 12.3
2007-04-10 07:30:59 51°11.489 2°43.231 252.7 13.3 250 12.2
2007-04-10 07:31:04 51°11.483 2°43.203 252.7 13.3 249 12.2
2007-04-10 07:31:09 51°11.476 2°43.176 252.3 13.2 249 12.2
2007-04-10 07:31:14 51°11.469 2°43.149 251 13.4 247 12.2
2007-04-10 07:31:19 51°11.462 2°43.121 250.7 13.4 249 12.2
2007-04-10 07:31:24 51°11.455 2°43.095 250.6 13.2 247 12.2
2007-04-10 07:31:29 51°11.447 2°43.068 249.9 13.2 246 12.3
2007-04-10 07:31:34 51°11.44 2°43.041 249.1 13.3 246 12.3
2007-04-10 07:31:39 51°11.432 2°43.015 248.4 13.3 245 12.3
2007-04-10 07:31:44 51°11.424 2°42.988 248.2 13.4 245 12.3
2007-04-10 07:31:49 51°11.416 2°42.961 247.8 13.3 244 12.4
2007-04-10 07:31:54 51°11.409 2°42.935 247.4 13.3 245 12.3
2007-04-10 07:31:59 51°11.401 2°42.908 247.3 13.4 245 12.3
2007-04-10 07:32:04 51°11.393 2°42.881 247.8 13.3 245 12.3
2007-04-10 07:32:09 51°11.385 2°42.855 247.9 13.2 246 12.3
2007-04-10 07:32:14 51°11.378 2°42.828 247.9 13.3 245 12.3
2007-04-10 07:32:19 51°11.37 2°42.801 248.1 13.4 246 12.4
2007-04-10 07:32:24 51°11.362 2°42.775 247.7 13.3 244 12.4
2007-04-10 07:32:29 51°11.354 2°42.748 246.7 13.3 243 12.3
2007-04-10 07:32:34 51°11.346 2°42.723 245.8 13 243 12.3
2007-04-10 07:32:39 51°11.338 2°42.698 245.5 12.6 243 12.4
2007-04-10 07:32:44 51°11.33 2°42.674 244.9 12.5 242 12.4
2007-04-10 07:32:49 51°11.322 2°42.65 244.7 12.2 242 12.4
2007-04-10 07:32:54 51°11.314 2°42.627 244.8 11.6 242 12.4
2007-04-10 07:32:59 51°11.307 2°42.606 244.5 11 242 12.5
2007-04-10 07:33:04 51°11.301 2°42.586 244.5 10.4 242 12.5
2007-04-10 07:33:09 51°11.294 2°42.567 244.3 9.8 242 12.6
2007-04-10 07:33:14 51°11.288 2°42.549 244.1 9.3 242 12.6
2007-04-10 07:33:19 51°11.282 2°42.532 244.1 8.9 241 12.7
2007-04-10 07:33:24 51°11.276 2°42.515 243.9 8.5 241 12.7
2007-04-10 07:33:29 51°11.271 2°42.5 243.5 8.1 240 12.6
2007-04-10 07:33:34 51°11.266 2°42.485 243.1 7.7 241 12.7
2007-04-10 07:33:39 51°11.261 2°42.471 243.1 7.4 240 12.7
2007-04-10 07:33:44 51°11.256 2°42.457 242.7 7.2 241 12.7
2007-04-10 07:33:49 51°11.251 2°42.444 242.7 6.8 239 12.7
2007-04-10 07:33:54 51°11.247 2°42.431 242.4 6.6 241 12.8
2007-04-10 07:33:59 51°11.242 2°42.419 242.2 6.3 239 12.8
2007-04-10 07:34:04 51°11.238 2°42.408 242 6.1 240 12.8
2007-04-10 07:34:09 51°11.233 2°42.396 241.8 5.9 238 12.8
2007-04-10 07:34:14 51°11.23 2°42.386 241.6 5.7 240 12.8
2007-04-10 07:34:19 51°11.226 2°42.375 241.6 5.5 239 12.8
2007-04-10 07:34:24 51°11.222 2°42.365 241.6 5.4 241 12.8
2007-04-10 07:34:29 51°11.218 2°42.355 242 5.2 240 12.8
2007-04-10 07:34:34 51°11.215 2°42.345 242.2 5.1 242 12.8
2007-04-10 07:34:39 51°11.211 2°42.336 242.6 4.9 239 12.8
2007-04-10 07:34:44 51°11.208 2°42.326 243 4.8 243 12.9
2007-04-10 07:34:49 51°11.205 2°42.317 243.3 4.7 239 12.9
2007-04-10 07:34:54 51°11.202 2°42.308 243.8 4.6 244 12.9
2007-04-10 07:34:59 51°11.199 2°42.3 243.8 4.5 240 12.9
2007-04-10 07:35:04 51°11.197 2°42.291 244.2 4.4 244 12.9
2007-04-10 07:35:09 51°11.194 2°42.283 244.5 4.3 241 12.9
2007-04-10 07:35:14 51°11.191 2°42.274 244.5 4.3 245 12.9
2007-04-10 07:35:19 51°11.188 2°42.266 244.9 4.2 240 12.9
2007-04-10 07:35:24 51°11.186 2°42.258 245 4.1 246 12.9
2007-04-10 07:35:29 51°11.183 2°42.25 245 4 240 12.9
2007-04-10 07:35:34 51°11.181 2°42.242 245.1 4 246 12.9
2007-04-10 07:35:39 51°11.178 2°42.235 245.1 3.9 240 12.9
2007-04-10 07:35:43 51°11.177 2°42.229 244.3 3.8 244 12.9
2007-04-10 07:35:49 51°11.173 2°42.22 243.3 3.7 239 12.9
2007-04-10 07:35:54 51°11.171 2°42.213 241.8 3.7 239 12.9
2007-04-10 07:35:59 51°11.168 2°42.207 240 3.5 237 12.8
2007-04-10 07:36:04 51°11.166 2°42.2 237.7 3.5 236 12.9
2007-04-10 07:36:09 51°11.163 2°42.194 235.4 3.4 233 12.9
2007-04-10 07:36:14 51°11.16 2°42.189 232.6 3.3 232 12.9
2007-04-10 07:36:19 51°11.157 2°42.184 229.8 3.2 227 13
2007-04-10 07:36:24 51°11.154 2°42.179 227.3 3.2 227 13
2007-04-10 07:36:29 51°11.151 2°42.174 225.5 3.1 225 13
2007-04-10 07:36:34 51°11.148 2°42.169 224.4 3.1 224 13
2007-04-10 07:36:39 51°11.145 2°42.164 223.3 3.1 225 13
2007-04-10 07:36:44 51°11.141 2°42.16 223 3.1 221 13
2007-04-10 07:36:49 51°11.138 2°42.155 222.6 3.1 225 13
2007-04-10 07:36:54 51°11.135 2°42.151 222.5 3 220 13.1
2007-04-10 07:36:59 51°11.132 2°42.146 222.9 3 225 13.1
2007-04-10 07:37:04 51°11.129 2°42.141 224 3 222 13
2007-04-10 07:37:09 51°11.127 2°42.136 225.7 3 231 13.1
2007-04-10 07:37:14 51°11.124 2°42.132 227.8 2.9 224 13.1
2007-04-10 07:37:19 51°11.121 2°42.127 230 2.8 235 13.1
2007-04-10 07:37:24 51°11.119 2°42.123 232.4 2.7 228 13.1
2007-04-10 07:37:30 51°11.116 2°42.117 234.4 2.6 237 13.1
2007-04-10 07:37:34 51°11.115 2°42.113 236.1 2.5 231 13.1
2007-04-10 07:37:39 51°11.113 2°42.108 237.5 2.4 239 13.1
2007-04-10 07:37:44 51°11.111 2°42.104 238.2 2.4 236 13.1
2007-04-10 07:37:49 51°11.109 2°42.1 239.5 2.3 239 13.1
2007-04-10 07:37:54 51°11.108 2°42.095 240.2 2.3 238 13.1
2007-04-10 07:37:59 51°11.106 2°42.091 240.9 2.2 241 13.1
2007-04-10 07:38:04 51°11.105 2°42.087 241.6 2.2 241 13.1
2007-04-10 07:38:09 51°11.103 2°42.083 242.1 2.2 242 13.1
2007-04-10 07:38:14 51°11.102 2°42.079 242.7 2 241 13.1
2007-04-10 07:38:19 51°11.101 2°42.075 243.2 1.8 241 13.1
2007-04-10 07:38:24 51°11.1 2°42.072 243.8 1.7 244 13.1
2007-04-10 07:38:29 51°11.099 2°42.069 244.3 1.5 243 13
2007-04-10 07:38:34 51°11.098 2°42.066 244.9 1.3 249 13
2007-04-10 07:38:39 51°11.098 2°42.064 246 0.9 242 13
2007-04-10 07:38:44 51°11.097 2°42.063 247.1 0.6 258 13
2007-04-10 07:38:49 51°11.097 2°42.062 247.5 0.4 245 13
2007-04-10 07:38:54 51°11.097 2°42.061 248.2 0.5 254 13.1
2007-04-10 07:38:59 51°11.097 2°42.06 248.5 0.4 235 13
2007-04-10 07:39:04 51°11.097 2°42.059 248.9 0.5 266 13.1
2007-04-10 07:39:09 51°11.096 2°42.058 249.2 0.4 246 13
2007-04-10 07:39:14 51°11.096 2°42.057 249.5 0.4 265 13.1
2007-04-10 07:39:19 51°11.096 2°42.057 249.6 0.4 242 13.1
2007-04-10 07:39:24 51°11.096 2°42.056 250 0.4 268 13.1
2007-04-10 07:39:29 51°11.096 2°42.055 250.3 0.4 254 13.1
2007-04-10 07:39:34 51°11.096 2°42.054 250.8 0.4 254 13
2007-04-10 07:39:39 51°11.096 2°42.053 250.8 0.4 250 13
2007-04-10 07:39:44 51°11.096 2°42.053 251.1 0.4 260 13
2007-04-10 07:39:49 51°11.095 2°42.052 251.4 0.4 262 13
2007-04-10 07:39:54 51°11.095 2°42.051 251.8 0.3 243 13
2007-04-10 07:39:59 51°11.095 2°42.051 251.9 0.3 268 13
2007-04-10 07:40:04 51°11.095 2°42.05 252.1 0.3 243 13.1
2007-04-10 07:40:09 51°11.095 2°42.049 252.5 0.3 246 13.1
2007-04-10 07:40:14 51°11.095 2°42.049 252.6 0.3 261 13.1
2007-04-10 07:40:19 51°11.095 2°42.048 252.8 0.3 250 13.1
2007-04-10 07:40:24 51°11.095 2°42.047 253.1 0.3 260 13
2007-04-10 07:40:29 51°11.094 2°42.047 253.3 0.3 264 13
2007-04-10 07:40:34 51°11.094 2°42.046 253.5 0.2 262 13
2007-04-10 07:40:39 51°11.094 2°42.046 253.6 0.3 251 13
2007-04-10 07:40:44 51°11.094 2°42.045 253.6 0.3 253 13
2007-04-10 07:40:49 51°11.094 2°42.045 253.9 0.2 269 13
2007-04-10 07:40:54 51°11.094 2°42.044 253.9 0.3 242 13
2007-04-10 07:40:59 51°11.094 2°42.044 254 0.2 236 13.1
2007-04-10 07:41:04 51°11.094 2°42.043 254 0.2 268 13.1
2007-04-10 07:41:09 51°11.094 2°42.043 254 0.2 251 13.1
2007-04-10 07:41:14 51°11.094 2°42.042 254 0.2 281 13.1
2007-04-10 07:41:19 51°11.094 2°42.042 254 0.1 232 13.1
2007-04-10 07:41:24 51°11.094 2°42.042 253.9 0.2 255 13.1
2007-04-10 07:41:29 51°11.093 2°42.041 253.8 0.2 229 13.1
2007-04-10 07:41:34 51°11.094 2°42.041 253.6 0.2 277 13
2007-04-10 07:41:39 51°11.093 2°42.041 253.5 0.2 213 13
2007-04-10 07:41:44 51°11.093 2°42.04 253.2 0.2 291 13
2007-04-10 07:41:49 51°11.092 2°42.04 253 0.2 208 13.1
2007-04-10 07:41:54 51°11.092 2°42.04 252.8 0.2 267 13.1
2007-04-10 07:41:59 51°11.092 2°42.04 252.5 0.2 212 13
2007-04-10 07:42:03 51°11.092 2°42.039 252.2 0.1 280 13
2007-04-10 07:42:09 51°11.092 2°42.039 251.8 0.2 198 13
2007-04-10 07:42:14 51°11.092 2°42.039 251.6 0.2 293 13.1
2007-04-10 07:42:19 51°11.092 2°42.039 251.2 0.1 261 13.1
2007-04-10 07:42:24 51°11.092 2°42.039 250.9 0.1 250 13
2007-04-10 07:42:29 51°11.092 2°42.039 250.3 0.1 201 13.1
2007-04-10 07:42:34 51°11.091 2°42.038 249.8 0.1 208 13
2007-04-10 07:42:39 51°11.091 2°42.038 249.4 0.1 244 13.1
2007-04-10 07:42:44 51°11.091 2°42.038 248.8 0.2 184 13
2007-04-10 07:42:49 51°11.091 2°42.038 248.3 -999 197 13.1
2007-04-10 07:42:54 51°11.091 2°42.038 247.8 0.1 179 13
2007-04-10 07:42:59 51°11.091 2°42.038 247.1 0.1 190 13
2007-04-10 07:43:04 51°11.091 2°42.038 246.7 0.2 172 13
2007-04-10 07:43:09 51°11.091 2°42.038 245.8 -999 290 13
2007-04-10 07:43:14 51°11.091 2°42.038 245.3 0.1 148 13
2007-04-10 07:43:19 51°11.091 2°42.038 244.4 -999 262 13
2007-04-10 07:43:24 51°11.091 2°42.038 243.8 0.2 145 13
2007-04-10 07:43:29 51°11.091 2°42.038 243.3 -999 314 13
2007-04-10 07:43:34 51°11.091 2°42.038 242.4 0.2 161 13.1
2007-04-10 07:43:39 51°11.091 2°42.038 241.8 0.1 163 13
2007-04-10 07:43:44 51°11.091 2°42.038 241.1 0.1 153 13
2007-04-10 07:43:49 51°11.09 2°42.039 240.3 0.1 141 13
2007-04-10 07:43:54 51°11.09 2°42.039 239.5 0.1 91 13.1
2007-04-10 07:43:59 51°11.09 2°42.039 238.5 0.1 138 13
2007-04-10 07:44:04 51°11.09 2°42.039 237.8 0.1 109 13
2007-04-10 07:44:09 51°11.09 2°42.039 236.7 0.1 101 13
2007-04-10 07:44:14 51°11.09 2°42.039 236 0.1 131 13.1
2007-04-10 07:44:19 51°11.09 2°42.04 235.5 0.1 68 13
2007-04-10 07:44:24 51°11.09 2°42.04 234.4 0.2 123 13
2007-04-10 07:44:29 51°11.09 2°42.04 233.6 0.1 100 13
2007-04-10 07:44:34 51°11.09 2°42.04 232.7 0.1 129 13
2007-04-10 07:44:39 51°11.09 2°42.04 231.8 0.1 93 13.1
2007-04-10 07:44:44 51°11.09 2°42.041 231 0.2 111 13
2007-04-10 07:44:49 51°11.09 2°42.041 230 0.1 15 13.1
2007-04-10 07:44:54 51°11.09 2°42.041 229.2 0.2 112 13
2007-04-10 07:44:59 51°11.09 2°42.041 228.3 0.1 4 13
2007-04-10 07:45:04 51°11.09 2°42.042 227.3 0.2 122 13
2007-04-10 07:45:09 51°11.09 2°42.042 226.4 0.1 27 13
2007-04-10 07:45:14 51°11.09 2°42.042 225.5 0.2 109 13
2007-04-10 07:45:19 51°11.09 2°42.043 224.5 0.1 72 13.1
2007-04-10 07:45:24 51°11.09 2°42.043 223.7 0.2 94 13
2007-04-10 07:45:29 51°11.09 2°42.043 222.6 0.1 43 13
2007-04-10 07:45:34 51°11.09 2°42.044 221.8 0.2 104 13
2007-04-10 07:45:39 51°11.09 2°42.044 220.5 -999 324 13
2007-04-10 07:45:44 51°11.089 2°42.044 219.6 0.4 171 13
2007-04-10 07:45:49 51°11.089 2°42.043 218.7 0.7 220 13
2007-04-10 07:45:54 51°11.088 2°42.042 217.7 1 204 13
2007-04-10 07:45:59 51°11.086 2°42.04 217 1.3 211 13
2007-04-10 07:46:04 51°11.084 2°42.039 216.4 1.6 209 13
2007-04-10 07:46:09 51°11.082 2°42.036 216 2 216 13
2007-04-10 07:46:14 51°11.079 2°42.033 215.7 2.7 212 13
2007-04-10 07:46:19 51°11.074 2°42.029 215.6 3.7 212 13.1
2007-04-10 07:46:24 51°11.069 2°42.023 215.8 4.5 214 13
2007-04-10 07:46:29 51°11.063 2°42.017 215.4 5.6 214 13
2007-04-10 07:46:34 51°11.056 2°42.009 216 6.1 216 13
2007-04-10 07:46:39 51°11.048 2°42 216.2 7 215 13
2007-04-10 07:46:44 51°11.04 2°41.989 218.9 7.8 221 13
2007-04-10 07:46:49 51°11.031 2°41.977 221.2 8.5 220 13.1
2007-04-10 07:46:54 51°11.021 2°41.962 222.8 9.4 224 13.1
2007-04-10 07:46:59 51°11.011 2°41.946 224.6 10.2 224 13
2007-04-10 07:47:04 51°11 2°41.928 227 11.1 229 13.1
2007-04-10 07:47:09 51°10.99 2°41.908 230.3 11.7 231 13
2007-04-10 07:47:14 51°10.98 2°41.887 232.9 12 233 13
2007-04-10 07:47:19 51°10.97 2°41.865 235 12.4 235 13
2007-04-10 07:47:24 51°10.96 2°41.841 236.6 12.8 237 13
2007-04-10 07:47:29 51°10.951 2°41.817 237.7 12.9 238 13
2007-04-10 07:47:34 51°10.941 2°41.792 239.8 13.2 240 13.1
2007-04-10 07:47:39 51°10.934 2°41.765 244.2 13.2 245 13.1
2007-04-10 07:47:44 51°10.926 2°41.739 246.6 13.3 245 13
2007-04-10 07:47:49 51°10.919 2°41.711 247.7 13.4 249 13
2007-04-10 07:47:54 51°10.912 2°41.684 250.1 13.4 249 13
2007-04-10 07:47:59 51°10.906 2°41.656 251.1 13.5 250 13
2007-04-10 07:48:04 51°10.9 2°41.628 252.3 13.5 251 13
2007-04-10 07:48:09 51°10.893 2°41.599 252.5 13.6 251 13
2007-04-10 07:48:14 51°10.888 2°41.57 254.1 13.6 254 13
2007-04-10 07:48:19 51°10.883 2°41.541 256 13.6 254 13
2007-04-10 07:48:24 51°10.878 2°41.512 257 13.6 256 13
2007-04-10 07:48:29 51°10.874 2°41.483 258.3 13.6 256 12.9
2007-04-10 07:48:34 51°10.87 2°41.454 259.1 13.7 258 13
2007-04-10 07:48:39 51°10.866 2°41.424 259.9 13.7 257 12.9
2007-04-10 07:48:44 51°10.862 2°41.395 260 13.7 258 13
2007-04-10 07:48:49 51°10.858 2°41.365 259.9 13.7 257 13
2007-04-10 07:48:54 51°10.854 2°41.336 259.8 13.6 258 12.9
2007-04-10 07:48:59 51°10.849 2°41.306 259.8 13.6 257 13
2007-04-10 07:49:03 51°10.846 2°41.283 259.8 13.6 258 12.9
2007-04-10 07:49:09 51°10.841 2°41.247 259.6 13.7 257 12.9
2007-04-10 07:49:14 51°10.837 2°41.218 259.8 13.8 258 12.9
2007-04-10 07:49:19 51°10.833 2°41.188 260.1 13.7 258 12.9
2007-04-10 07:49:24 51°10.829 2°41.159 259.8 13.6 257 13
2007-04-10 07:49:29 51°10.825 2°41.129 259.6 13.6 257 13
2007-04-10 07:49:34 51°10.821 2°41.1 259.5 13.7 257 12.9
2007-04-10 07:49:39 51°10.816 2°41.071 259 13.7 257 12.9
2007-04-10 07:49:44 51°10.812 2°41.041 259.1 13.7 257 13
2007-04-10 07:49:49 51°10.808 2°41.012 259.4 13.7 257 13
2007-04-10 07:49:54 51°10.803 2°40.982 259.5 13.7 257 13
2007-04-10 07:49:59 51°10.799 2°40.953 259.4 13.6 256 13.1
2007-04-10 07:50:04 51°10.795 2°40.924 259 13.6 256 13.1
2007-04-10 07:50:09 51°10.79 2°40.895 258.6 13.6 256 13.1
2007-04-10 07:50:14 51°10.785 2°40.866 258.4 13.6 256 13.1
2007-04-10 07:50:19 51°10.781 2°40.837 258.6 13.6 256 13.2
2007-04-10 07:50:24 51°10.776 2°40.808 258.6 13.5 256 13.3
2007-04-10 07:50:29 51°10.772 2°40.779 259.1 13.5 256 13.3
2007-04-10 07:50:34 51°10.767 2°40.75 258.7 13.6 255 13.4
2007-04-10 07:50:39 51°10.763 2°40.721 258.5 13.5 256 13.4
2007-04-10 07:50:44 51°10.758 2°40.692 258.6 13.5 256 13.4
2007-04-10 07:50:49 51°10.754 2°40.663 258.9 13.6 257 13.5
2007-04-10 07:50:54 51°10.75 2°40.634 259.6 13.5 258 13.5
2007-04-10 07:50:59 51°10.746 2°40.605 260.1 13.5 257 13.6
2007-04-10 07:51:04 51°10.742 2°40.575 260.2 13.5 258 13.5
2007-04-10 07:51:09 51°10.738 2°40.546 260.5 13.5 257 13.5
2007-04-10 07:51:14 51°10.734 2°40.517 260.5 13.5 258 13.7
2007-04-10 07:51:19 51°10.73 2°40.488 260.5 13.5 257 13.7
2007-04-10 07:51:24 51°10.726 2°40.459 260.1 13.5 258 13.8
2007-04-10 07:51:29 51°10.722 2°40.43 260.5 13.5 257 13.8
2007-04-10 07:51:34 51°10.717 2°40.401 260.3 13.5 258 13.9
2007-04-10 07:51:39 51°10.713 2°40.371 260.3 13.5 257 13.9
2007-04-10 07:51:44 51°10.709 2°40.342 260.2 13.5 257 13.9
2007-04-10 07:51:49 51°10.705 2°40.313 259.9 13.5 257 14
2007-04-10 07:51:54 51°10.701 2°40.284 259.9 13.5 257 14
2007-04-10 07:51:59 51°10.696 2°40.255 259.8 13.5 257 14.1
2007-04-10 07:52:04 51°10.692 2°40.226 260.2 13.5 257 14.1
2007-04-10 07:52:09 51°10.688 2°40.197 260.2 13.6 257 14.3
2007-04-10 07:52:14 51°10.684 2°40.168 260.3 13.5 258 14.2
2007-04-10 07:52:19 51°10.68 2°40.139 260.5 13.5 258 14.3
2007-04-10 07:52:24 51°10.676 2°40.11 260.4 13.6 257 14.3
2007-04-10 07:52:29 51°10.672 2°40.08 260.2 13.6 257 14.4
2007-04-10 07:52:34 51°10.667 2°40.051 259.9 13.6 257 14.5
2007-04-10 07:52:39 51°10.663 2°40.022 260 13.5 257 14.6
2007-04-10 07:52:44 51°10.659 2°39.993 260 13.6 258 14.6
2007-04-10 07:52:49 51°10.655 2°39.964 260.2 13.6 257 14.6
2007-04-10 07:52:54 51°10.651 2°39.934 260.5 13.6 258 14.6
2007-04-10 07:52:59 51°10.647 2°39.905 260.5 13.7 257 14.7
2007-04-10 07:53:04 51°10.642 2°39.875 260.2 13.7 258 14.9
2007-04-10 07:53:09 51°10.638 2°39.846 260.4 13.6 257 15
2007-04-10 07:53:14 51°10.634 2°39.817 259.8 13.6 257 15.1
2007-04-10 07:53:19 51°10.63 2°39.788 259.8 13.6 257 15
2007-04-10 07:53:24 51°10.625 2°39.759 259.9 13.6 257 15.1
2007-04-10 07:53:29 51°10.621 2°39.729 260 13.6 257 15.1
2007-04-10 07:53:34 51°10.617 2°39.7 259.9 13.6 258 15.1
2007-04-10 07:53:39 51°10.612 2°39.671 259.9 13.5 256 15.1
2007-04-10 07:53:44 51°10.608 2°39.642 259.6 13.5 258 15.2
2007-04-10 07:53:49 51°10.604 2°39.613 259.8 13.5 257 15.3
2007-04-10 07:53:54 51°10.6 2°39.584 260.2 13.5 258 15.3
2007-04-10 07:53:59 51°10.596 2°39.554 260.2 13.6 256 15.4
2007-04-10 07:54:04 51°10.591 2°39.525 259.8 13.6 257 15.4
2007-04-10 07:54:09 51°10.587 2°39.496 259.7 13.5 256 15.4
2007-04-10 07:54:14 51°10.583 2°39.467 259.5 13.5 257 15.4
2007-04-10 07:54:19 51°10.578 2°39.438 259.8 13.5 257 15.5
2007-04-10 07:54:24 51°10.575 2°39.409 260.5 13.5 259 15.7
2007-04-10 07:54:29 51°10.571 2°39.379 261 13.6 259 15.6
2007-04-10 07:54:34 51°10.568 2°39.35 262 13.6 260 15.7
2007-04-10 07:54:39 51°10.564 2°39.321 262.3 13.5 259 15.8
2007-04-10 07:54:44 51°10.561 2°39.291 262.2 13.5 260 15.8
2007-04-10 07:54:49 51°10.558 2°39.262 262.4 13.6 260 15.8
2007-04-10 07:54:54 51°10.554 2°39.232 262.8 13.5 260 15.7
2007-04-10 07:54:59 51°10.551 2°39.203 262.7 13.6 259 15.8
2007-04-10 07:55:04 51°10.548 2°39.174 262.4 13.5 260 15.8
2007-04-10 07:55:09 51°10.544 2°39.145 262.7 13.5 259 15.9
2007-04-10 07:55:14 51°10.541 2°39.115 262.6 13.5 260 15.9
2007-04-10 07:55:19 51°10.538 2°39.086 263.1 13.5 260 16
2007-04-10 07:55:24 51°10.534 2°39.057 262.9 13.6 259 16.2
2007-04-10 07:55:29 51°10.531 2°39.027 262.9 13.5 261 16.2
2007-04-10 07:55:34 51°10.527 2°38.998 263.1 13.5 259 16.2
2007-04-10 07:55:39 51°10.524 2°38.969 262.7 13.5 260 16.3
2007-04-10 07:55:44 51°10.521 2°38.939 262.8 13.5 259 16.3
2007-04-10 07:55:49 51°10.518 2°38.91 262.8 13.5 260 16.4
2007-04-10 07:55:54 51°10.514 2°38.88 263 13.5 259 16.4
2007-04-10 07:55:59 51°10.511 2°38.851 262.9 13.5 260 16.4
2007-04-10 07:56:04 51°10.507 2°38.822 262.9 13.5 259 16.5
2007-04-10 07:56:09 51°10.504 2°38.792 262.7 13.6 260 16.5
2007-04-10 07:56:14 51°10.501 2°38.763 262.7 13.5 259 16.6
2007-04-10 07:56:19 51°10.497 2°38.733 262.7 13.6 259 16.7
2007-04-10 07:56:24 51°10.494 2°38.704 262.6 13.6 259 16.8
2007-04-10 07:56:29 51°10.49 2°38.675 262.7 13.5 259 16.9
2007-04-10 07:56:34 51°10.486 2°38.645 262.3 13.6 259 16.9
2007-04-10 07:56:39 51°10.483 2°38.616 262.1 13.6 260 17
2007-04-10 07:56:44 51°10.479 2°38.586 262.4 13.6 259 17.1
2007-04-10 07:56:49 51°10.476 2°38.557 262.5 13.6 260 17.2
2007-04-10 07:56:54 51°10.472 2°38.527 262.7 13.6 259 17.2
2007-04-10 07:56:59 51°10.469 2°38.498 262.3 13.6 259 17.4
2007-04-10 07:57:04 51°10.465 2°38.468 262.5 13.7 259 17.5
2007-04-10 07:57:09 51°10.461 2°38.439 262.4 13.6 260 17.5
2007-04-10 07:57:14 51°10.458 2°38.409 262.7 13.6 259 17.5
2007-04-10 07:57:19 51°10.455 2°38.379 262.6 13.7 260 17.5
2007-04-10 07:57:24 51°10.451 2°38.35 262.9 13.6 260 17.6
2007-04-10 07:57:29 51°10.448 2°38.32 263.2 13.6 260 17.7
2007-04-10 07:57:34 51°10.445 2°38.291 263 13.7 260 17.9
2007-04-10 07:57:39 51°10.441 2°38.261 262.7 13.7 260 18
2007-04-10 07:57:44 51°10.437 2°38.232 262.4 13.6 259 18.1
2007-04-10 07:57:49 51°10.434 2°38.202 261.8 13.7 260 18.1
2007-04-10 07:57:54 51°10.43 2°38.172 262.2 13.7 259 18.2
2007-04-10 07:57:59 51°10.427 2°38.143 262.2 13.6 259 18.3
2007-04-10 07:58:04 51°10.423 2°38.113 262 13.7 258 18.2
2007-04-10 07:58:10 51°10.419 2°38.078 262.2 13.6 261 18.2
2007-04-10 07:58:14 51°10.416 2°38.054 262.6 13.6 259 18.2
2007-04-10 07:58:19 51°10.413 2°38.024 262.2 13.6 260 18.3
2007-04-10 07:58:24 51°10.409 2°37.995 262.3 13.7 259 18.2
2007-04-10 07:58:29 51°10.405 2°37.965 262.2 13.7 259 18.3
2007-04-10 07:58:34 51°10.403 2°37.935 262.8 13.6 260 18.4
2007-04-10 07:58:39 51°10.399 2°37.906 262.6 13.6 259 18.4
2007-04-10 07:58:44 51°10.395 2°37.876 262.3 13.7 260 18.4
2007-04-10 07:58:49 51°10.392 2°37.846 262.7 13.7 260 18.4
2007-04-10 07:58:54 51°10.389 2°37.817 262.7 13.6 260 18.5
2007-04-10 07:58:59 51°10.385 2°37.788 262.3 13.7 259 18.5
2007-04-10 07:59:04 51°10.382 2°37.758 262.4 13.6 260 18.3
2007-04-10 07:59:09 51°10.378 2°37.728 262.7 13.6 259 18.4
2007-04-10 07:59:14 51°10.375 2°37.699 262 13.6 260 18.3
2007-04-10 07:59:19 51°10.371 2°37.67 262.3 13.6 259 18.3
2007-04-10 07:59:24 51°10.367 2°37.64 262.2 13.6 259 18.3
2007-04-10 07:59:29 51°10.364 2°37.611 262.1 13.6 259 18.3
2007-04-10 07:59:34 51°10.36 2°37.581 261.5 13.6 258 18.2
2007-04-10 07:59:39 51°10.357 2°37.552 261.9 13.6 260 18.1
2007-04-10 07:59:44 51°10.353 2°37.522 262 13.6 259 18.2
2007-04-10 07:59:49 51°10.35 2°37.493 262 13.6 260 18.2
2007-04-10 07:59:54 51°10.347 2°37.463 262.2 13.6 259 18.1
2007-04-10 07:59:59 51°10.344 2°37.434 263.3 13.6 262 18.2
2007-04-10 08:00:04 51°10.341 2°37.404 264.2 13.6 262 18.1
2007-04-10 08:00:09 51°10.339 2°37.374 265.2 13.6 263 18
2007-04-10 08:00:14 51°10.337 2°37.344 265.7 13.6 263 18
2007-04-10 08:00:19 51°10.335 2°37.314 265.9 13.6 263 18.1
2007-04-10 08:00:24 51°10.332 2°37.284 266.6 13.6 263 18
2007-04-10 08:00:29 51°10.33 2°37.254 266.6 13.6 264 18
2007-04-10 08:00:34 51°10.329 2°37.224 266.9 13.6 264 18.1
2007-04-10 08:00:39 51°10.326 2°37.195 266.9 13.6 264 18
2007-04-10 08:00:44 51°10.325 2°37.165 267 13.6 264 17.9
2007-04-10 08:00:49 51°10.322 2°37.135 266.8 13.7 263 17.8
2007-04-10 08:00:54 51°10.32 2°37.105 266.7 13.6 263 17.8
2007-04-10 08:00:59 51°10.318 2°37.075 266.6 13.6 263 17.7
2007-04-10 08:01:04 51°10.316 2°37.045 266.4 13.7 263 17.7
2007-04-10 08:01:09 51°10.314 2°37.015 266.3 13.7 263 17.6
2007-04-10 08:01:14 51°10.312 2°36.985 266.4 13.7 264 17.4
2007-04-10 08:01:19 51°10.31 2°36.955 266.4 13.7 263 17.4
2007-04-10 08:01:24 51°10.308 2°36.925 266.3 13.7 264 17.3
2007-04-10 08:01:29 51°10.307 2°36.895 268 13.6 268 17
2007-04-10 08:01:34 51°10.307 2°36.865 271.4 13.7 270 17
2007-04-10 08:01:39 51°10.308 2°36.834 274.3 13.6 273 16.7
2007-04-10 08:01:44 51°10.309 2°36.805 276.3 13.6 273 16.5
2007-04-10 08:01:49 51°10.311 2°36.775 277.8 13.5 275 16.1
2007-04-10 08:01:54 51°10.313 2°36.745 278.7 13.6 276 16.2
2007-04-10 08:01:59 51°10.315 2°36.715 279.3 13.7 277 16.1
2007-04-10 08:02:04 51°10.319 2°36.685 281.9 13.5 281 15.3
2007-04-10 08:02:09 51°10.323 2°36.656 285 13.7 283 15
2007-04-10 08:02:14 51°10.328 2°36.627 287.3 13.6 285 14.5
2007-04-10 08:02:19 51°10.333 2°36.599 289.1 13.6 286 14
2007-04-10 08:02:24 51°10.339 2°36.57 289.9 13.5 288 13.4
2007-04-10 08:02:29 51°10.346 2°36.542 292.5 13.5 291 12.7
2007-04-10 08:02:34 51°10.354 2°36.516 296.8 13.4 297 12.2
2007-04-10 08:02:39 51°10.363 2°36.49 300.3 13.4 298 11.4
2007-04-10 08:02:44 51°10.373 2°36.466 304.6 13.3 304 11
2007-04-10 08:02:49 51°10.384 2°36.441 307.8 13.3 305 10.5
2007-04-10 08:02:54 51°10.395 2°36.419 310.6 13.1 309 10.1
2007-04-10 08:02:59 51°10.408 2°36.399 316 13.1 315 9.7
2007-04-10 08:03:04 51°10.422 2°36.38 320.2 13.1 318 9.8
2007-04-10 08:03:09 51°10.436 2°36.362 323.8 13 323 9.8
2007-04-10 08:03:14 51°10.452 2°36.347 329.3 13 328 9.9
2007-04-10 08:03:19 51°10.468 2°36.333 333.9 13.1 331 10
2007-04-10 08:03:24 51°10.484 2°36.32 337.1 13.2 334 10
2007-04-10 08:03:29 51°10.501 2°36.309 339.5 13.2 337 10.1
2007-04-10 08:03:34 51°10.518 2°36.299 343.4 13.3 342 10.4
2007-04-10 08:03:39 51°10.536 2°36.293 349.1 13.2 348 10.4
2007-04-10 08:03:44 51°10.554 2°36.288 353.4 13.2 351 10.7
2007-04-10 08:03:49 51°10.573 2°36.285 356.7 13.3 354 10.8
2007-04-10 08:03:54 51°10.591 2°36.284 0.2 13.3 358 11
2007-04-10 08:03:59 51°10.61 2°36.286 5 13.3 3 11.1
2007-04-10 08:04:04 51°10.628 2°36.288 7.9 13.3 4 11.1
2007-04-10 08:04:09 51°10.646 2°36.291 10.8 13.3 7 11.2
2007-04-10 08:04:14 51°10.665 2°36.296 12.7 13.3 9 11.3